Time;durP1;ratioP1;P1;durP2;ratioP2;P2;SDS_P1;SDS_P2;PMS_P1;PMS_P2;Temp;Humidity;BMP_temperature;BMP_pressure;BME280_temperature;BME280_humidity;BME280_pressure;Samples;Min_cycle;Max_cycle;Signal;HPM_P1;HPM_P2
2023/08/02 00:02:19;;;;;;;4.90;4.50;;;16.60;99.90;;;;;;5035058;28;20215;-80
2023/08/02 00:04:45;;;;;;;5.60;5.17;;;16.60;99.90;;;;;;5019567;28;20181;-79
2023/08/02 00:07:11;;;;;;;6.47;5.10;;;16.60;99.90;;;;;;5040450;28;20214;-80
2023/08/02 00:09:38;;;;;;;5.83;5.20;;;16.60;99.90;;;;;;5041915;28;20256;-80
2023/08/02 00:12:04;;;;;;;5.90;5.40;;;16.60;99.90;;;;;;5023790;28;20173;-80
2023/08/02 00:14:30;;;;;;;5.23;4.83;;;16.70;99.90;;;;;;5035459;28;20172;-82
2023/08/02 00:16:55;;;;;;;5.30;4.90;;;16.60;99.90;;;;;;5034724;28;20247;-81
2023/08/02 00:19:21;;;;;;;4.53;4.13;;;16.60;99.90;;;;;;5034187;28;20195;-81
2023/08/02 00:21:47;;;;;;;2.73;2.53;;;16.60;99.90;;;;;;5016659;28;20176;-81
2023/08/02 00:24:13;;;;;;;2.90;2.73;;;16.50;99.90;;;;;;5016338;28;20184;-80
2023/08/02 00:26:38;;;;;;;2.70;2.60;;;16.40;99.90;;;;;;5034105;28;20541;-82
2023/08/02 00:29:04;;;;;;;2.90;2.60;;;16.20;99.90;;;;;;5034161;28;20563;-81
2023/08/02 00:31:30;;;;;;;3.53;2.60;;;16.20;99.90;;;;;;5034360;28;20183;-80
2023/08/02 00:33:56;;;;;;;2.40;2.30;;;16.10;99.90;;;;;;5034295;28;20183;-80
2023/08/02 00:36:21;;;;;;;3.00;2.80;;;15.70;99.90;;;;;;5033844;28;20193;-80
2023/08/02 00:38:47;;;;;;;3.20;3.00;;;16.10;99.90;;;;;;5016360;28;20190;-81
2023/08/02 00:41:13;;;;;;;3.27;2.60;;;16.00;99.90;;;;;;5034172;28;20548;-83
2023/08/02 00:43:44;;;;;;;3.50;3.20;;;16.10;99.90;;;;;;5034041;28;20218;-82
2023/08/02 00:46:13;;;;;;;3.73;3.47;;;16.00;99.90;;;;;;4996391;28;20650;-81
2023/08/02 00:48:40;;;;;;;3.40;3.20;;;16.00;99.90;;;;;;4997018;28;20226;-80
2023/08/02 00:51:12;;;;;;;3.30;3.10;;;15.80;99.90;;;;;;4996605;28;20192;-79
2023/08/02 00:53:38;;;;;;;3.47;3.27;;;16.00;99.90;;;;;;4996977;28;20177;-81
2023/08/02 00:56:05;;;;;;;3.77;3.47;;;16.00;99.90;;;;;;4996510;28;20281;-81
2023/08/02 00:58:32;;;;;;;5.13;4.63;;;16.00;99.90;;;;;;5014636;28;20177;-79
2023/08/02 01:01:06;;;;;;;6.43;5.57;;;16.00;99.90;;;;;;4998900;28;20185;-80
2023/08/02 01:03:34;;;;;;;7.77;6.30;;;15.90;99.90;;;;;;5023164;28;20947;-80
2023/08/02 01:06:10;;;;;;;7.23;6.13;;;16.00;99.90;;;;;;5015672;28;20167;-79
2023/08/02 01:08:38;;;;;;;7.27;6.50;;;16.00;99.90;;;;;;4997748;28;20564;-82
2023/08/02 01:11:48;;;;;;;7.07;6.37;;;16.00;99.90;;;;;;4996429;28;20641;-83
2023/08/02 01:14:19;;;;;;;9.63;6.60;;;16.00;99.90;;;;;;4905051;29;20208;-81
2023/08/02 01:16:45;;;;;;;8.47;7.30;;;16.00;99.90;;;;;;4915983;29;20180;-81
2023/08/02 01:19:12;;;;;;;8.20;6.70;;;16.00;99.90;;;;;;4899320;29;20188;-81
2023/08/02 01:21:38;;;;;;;10.47;6.93;;;15.90;99.90;;;;;;4915131;29;20184;-81
2023/08/02 01:24:05;;;;;;;8.17;6.63;;;15.90;99.90;;;;;;4901348;29;20180;-81
2023/08/02 01:26:35;;;;;;;7.00;5.97;;;16.00;99.90;;;;;;4911728;29;20580;-80
2023/08/02 01:29:05;;;;;;;7.20;6.50;;;15.90;99.90;;;;;;4917635;29;20217;-81
2023/08/02 01:31:33;;;;;;;8.57;6.70;;;15.80;99.90;;;;;;4917474;29;20231;-81
2023/08/02 01:33:59;;;;;;;7.80;6.63;;;15.70;99.90;;;;;;4901388;29;20185;-81
2023/08/02 01:36:25;;;;;;;8.17;7.13;;;15.80;99.90;;;;;;4915331;29;20722;-81
2023/08/02 01:38:52;;;;;;;8.80;7.07;;;15.90;99.90;;;;;;4898854;29;20699;-81
2023/08/02 01:41:17;;;;;;;8.80;7.37;;;16.00;99.90;;;;;;4915059;29;20267;-82
2023/08/02 01:43:44;;;;;;;10.20;6.80;;;16.00;99.90;;;;;;4938587;28;20180;-81
2023/08/02 01:46:10;;;;;;;7.97;6.27;;;16.10;99.90;;;;;;5056289;28;20211;-79
2023/08/02 01:48:36;;;;;;;7.53;6.47;;;16.10;99.90;;;;;;5056750;28;20169;-79
2023/08/02 01:51:02;;;;;;;7.40;6.60;;;16.20;99.90;;;;;;5057334;28;20248;-81
2023/08/02 01:53:28;;;;;;;11.10;7.40;;;16.10;99.90;;;;;;5039533;28;20206;-81
2023/08/02 01:55:53;;;;;;;9.27;7.40;;;16.00;99.90;;;;;;5056288;28;20204;-82
2023/08/02 01:58:19;;;;;;;9.60;7.67;;;15.90;99.90;;;;;;5056910;28;20175;-82
2023/08/02 02:00:46;;;;;;;9.27;7.60;;;15.80;99.90;;;;;;5039239;28;20180;-82
2023/08/02 02:03:12;;;;;;;9.27;7.33;;;15.80;99.90;;;;;;5038155;28;20172;-85
2023/08/02 02:05:38;;;;;;;8.93;7.03;;;15.80;99.90;;;;;;5038563;28;20165;-82
2023/08/02 02:08:03;;;;;;;8.67;7.63;;;15.90;99.90;;;;;;5056122;28;20177;-81
2023/08/02 02:10:29;;;;;;;8.77;7.40;;;16.00;99.90;;;;;;5056062;28;20212;-82
2023/08/02 02:12:55;;;;;;;9.77;7.70;;;16.00;99.90;;;;;;5055979;28;20230;-80
2023/08/02 02:15:21;;;;;;;8.70;7.80;;;16.10;99.90;;;;;;5031858;28;20185;-79
2023/08/02 02:17:48;;;;;;;7.83;6.70;;;16.00;99.90;;;;;;5028038;28;20180;-82
2023/08/02 02:20:14;;;;;;;10.10;7.30;;;16.00;99.90;;;;;;5040328;28;20174;-80
2023/08/02 02:22:40;;;;;;;8.70;7.00;;;16.00;99.90;;;;;;5056107;28;20225;-78
2023/08/02 02:25:06;;;;;;;9.57;6.63;;;16.00;99.90;;;;;;5039336;28;20168;-79
2023/08/02 02:27:32;;;;;;;10.07;7.60;;;15.90;99.90;;;;;;5047133;28;20176;-80
2023/08/02 02:30:00;;;;;;;7.03;6.20;;;15.90;99.90;;;;;;5045442;28;20707;-81
2023/08/02 02:32:26;;;;;;;8.07;6.60;;;15.90;99.90;;;;;;5040465;28;20276;-79
2023/08/02 02:34:52;;;;;;;9.27;6.67;;;15.80;99.90;;;;;;5039363;28;20644;-80
2023/08/02 02:37:18;;;;;;;8.30;6.30;;;15.80;99.90;;;;;;5039275;28;20175;-81
2023/08/02 02:39:43;;;;;;;12.10;7.57;;;15.80;99.90;;;;;;5043437;28;20183;-81
2023/08/02 02:42:09;;;;;;;10.47;6.87;;;15.80;99.90;;;;;;5050170;28;20168;-80
2023/08/02 02:44:42;;;;;;;9.97;7.30;;;15.80;99.90;;;;;;5041150;28;20223;-79
2023/08/02 02:47:12;;;;;;;10.93;6.87;;;15.80;99.90;;;;;;5025919;28;20180;-79
2023/08/02 02:49:37;;;;;;;8.83;6.43;;;15.80;99.90;;;;;;5037589;28;20211;-80
2023/08/02 02:52:04;;;;;;;9.13;6.97;;;15.80;99.90;;;;;;5048099;28;20187;-81
2023/08/02 02:54:32;;;;;;;7.13;6.00;;;15.80;99.90;;;;;;5029743;28;20198;-80
2023/08/02 02:56:57;;;;;;;5.37;4.63;;;15.70;99.90;;;;;;5037077;28;20199;-79
2023/08/02 02:59:23;;;;;;;5.90;4.70;;;15.60;99.90;;;;;;5037003;28;20692;-79
2023/08/02 03:01:51;;;;;;;5.70;5.13;;;15.60;99.90;;;;;;5036890;28;20166;-79
2023/08/02 03:04:16;;;;;;;5.60;4.97;;;15.70;99.90;;;;;;5036310;28;20286;-79
2023/08/02 03:06:42;;;;;;;6.17;5.57;;;15.60;99.90;;;;;;5036616;28;20636;-81
2023/08/02 03:09:08;;;;;;;6.90;5.77;;;15.60;99.90;;;;;;5036298;28;20287;-81
2023/08/02 03:11:34;;;;;;;6.10;5.50;;;15.50;99.90;;;;;;5038715;28;20254;-80
2023/08/02 03:14:01;;;;;;;6.63;5.20;;;15.50;99.90;;;;;;5054395;28;20156;-80
2023/08/02 03:16:27;;;;;;;5.90;5.40;;;15.60;99.90;;;;;;5041955;28;20168;-79
2023/08/02 03:18:55;;;;;;;6.97;6.00;;;15.60;99.90;;;;;;5018370;28;20187;-80
2023/08/02 03:21:21;;;;;;;6.77;5.60;;;15.30;99.90;;;;;;5036734;28;20175;-80
2023/08/02 03:23:47;;;;;;;6.67;5.90;;;15.60;99.90;;;;;;5036170;28;20173;-80
2023/08/02 03:26:12;;;;;;;5.97;5.17;;;15.60;99.90;;;;;;5049157;28;20177;-82
2023/08/02 03:28:38;;;;;;;9.33;5.50;;;15.60;99.90;;;;;;5059761;28;20152;-84
2023/08/02 03:31:04;;;;;;;7.70;5.60;;;15.60;99.90;;;;;;5039161;28;20275;-81
2023/08/02 03:33:30;;;;;;;6.20;5.60;;;15.60;99.90;;;;;;5038023;28;20180;-81
2023/08/02 03:35:55;;;;;;;6.80;6.10;;;15.60;99.90;;;;;;5036620;28;20203;-82
2023/08/02 03:38:21;;;;;;;6.40;5.37;;;15.60;99.90;;;;;;5035985;28;20624;-80
2023/08/02 03:40:47;;;;;;;6.20;5.60;;;15.60;99.90;;;;;;5017402;28;20199;-80
2023/08/02 03:43:13;;;;;;;7.40;6.23;;;15.60;99.90;;;;;;5018005;28;20551;-81
2023/08/02 03:45:39;;;;;;;7.30;6.00;;;15.60;99.90;;;;;;5018543;28;20255;-80
2023/08/02 03:48:05;;;;;;;7.47;5.77;;;15.50;99.90;;;;;;5017996;28;20651;-81
2023/08/02 03:50:33;;;;;;;8.10;6.17;;;15.60;99.90;;;;;;5035168;28;20208;-79
2023/08/02 03:53:02;;;;;;;6.57;5.97;;;15.60;99.90;;;;;;5036421;28;20363;-78
2023/08/02 03:55:27;;;;;;;9.37;6.00;;;15.50;99.90;;;;;;5020297;28;20187;-80
2023/08/02 03:57:53;;;;;;;7.17;5.97;;;15.50;99.90;;;;;;5021173;28;20177;-81
2023/08/02 04:00:22;;;;;;;8.70;6.63;;;15.40;99.90;;;;;;5038259;28;20703;-81
2023/08/02 04:02:53;;;;;;;9.17;6.83;;;15.80;99.90;;;;;;5036994;28;20172;-79
2023/08/02 04:05:19;;;;;;;10.27;6.77;;;15.40;99.90;;;;;;5034913;28;20214;-79
2023/08/02 04:07:45;;;;;;;8.87;7.13;;;15.30;99.90;;;;;;5017474;28;20199;-82
2023/08/02 04:10:11;;;;;;;11.87;8.57;;;15.20;99.90;;;;;;5035194;28;20210;-79
2023/08/02 04:12:37;;;;;;;13.40;8.57;;;15.20;99.90;;;;;;5035476;28;20252;-76
2023/08/02 04:15:03;;;;;;;12.53;9.00;;;15.20;99.90;;;;;;5034439;28;20181;-76
2023/08/02 04:17:29;;;;;;;13.40;8.50;;;15.20;99.90;;;;;;5038812;28;20200;-77
2023/08/02 04:19:55;;;;;;;9.37;7.10;;;15.20;99.90;;;;;;5051532;28;20184;-79
2023/08/02 04:22:21;;;;;;;9.97;6.00;;;15.30;99.90;;;;;;5042440;28;20586;-78
2023/08/02 04:24:47;;;;;;;8.07;6.63;;;15.30;99.90;;;;;;5034785;28;20176;-79
2023/08/02 04:27:13;;;;;;;6.57;5.70;;;15.30;99.90;;;;;;5016521;28;20271;-77
2023/08/02 04:29:39;;;;;;;6.03;5.43;;;15.30;99.90;;;;;;5034195;28;20286;-79
2023/08/02 04:32:05;;;;;;;7.77;5.77;;;15.30;99.90;;;;;;5054533;28;20172;-80
2023/08/02 04:34:30;;;;;;;6.13;5.27;;;15.30;99.90;;;;;;5037885;28;20211;-81
2023/08/02 04:36:56;;;;;;;7.63;5.63;;;15.30;99.90;;;;;;5034911;28;20505;-82
2023/08/02 04:39:22;;;;;;;5.60;4.77;;;15.20;99.90;;;;;;5034229;28;20204;-77
2023/08/02 04:41:53;;;;;;;4.87;4.47;;;15.20;99.90;;;;;;5034050;28;20528;-78
2023/08/02 04:44:19;;;;;;;3.30;2.97;;;15.20;99.90;;;;;;5033849;28;20238;-79
2023/08/02 04:46:45;;;;;;;4.20;3.80;;;15.30;99.90;;;;;;5016325;28;20176;-78
2023/08/02 04:49:10;;;;;;;3.97;3.33;;;15.30;99.90;;;;;;5034179;28;20726;-80
2023/08/02 04:51:38;;;;;;;3.40;3.10;;;15.30;99.90;;;;;;5034142;28;20254;-78
2023/08/02 04:54:04;;;;;;;3.23;2.93;;;15.30;99.90;;;;;;5016163;28;20645;-79
2023/08/02 04:56:31;;;;;;;3.30;3.10;;;15.30;99.90;;;;;;5037556;28;20176;-78
2023/08/02 04:58:57;;;;;;;3.20;2.90;;;15.40;99.90;;;;;;5038694;28;20262;-82
2023/08/02 05:01:22;;;;;;;3.03;2.80;;;15.50;99.90;;;;;;5035798;28;20588;-81
2023/08/02 05:03:48;;;;;;;3.67;2.67;;;15.50;99.90;;;;;;5054600;28;20196;-79
2023/08/02 05:06:14;;;;;;;3.80;3.50;;;15.40;99.90;;;;;;5056882;28;20172;-80
2023/08/02 05:08:40;;;;;;;2.97;2.80;;;15.40;99.90;;;;;;5058495;28;20236;-80
2023/08/02 05:11:07;;;;;;;2.93;2.50;;;15.50;99.90;;;;;;5042209;28;20173;-79
2023/08/02 05:13:33;;;;;;;3.00;2.80;;;15.60;99.90;;;;;;5035490;28;20242;-78
2023/08/02 05:15:59;;;;;;;3.83;3.53;;;15.70;99.90;;;;;;5034821;28;20175;-81
2023/08/02 05:18:24;;;;;;;4.60;4.23;;;15.70;99.90;;;;;;5018084;28;20187;-79
2023/08/02 05:20:52;;;;;;;3.30;3.10;;;15.80;99.90;;;;;;5034748;28;20177;-79
2023/08/02 05:23:18;;;;;;;2.37;2.27;;;15.90;99.90;;;;;;5043706;28;20187;-79
2023/08/02 05:25:44;;;;;;;2.13;2.00;;;16.00;99.90;;;;;;5025382;28;20175;-79
2023/08/02 05:28:10;;;;;;;3.00;2.80;;;16.10;99.90;;;;;;5035319;28;20177;-81
2023/08/02 05:30:36;;;;;;;2.63;2.40;;;16.10;99.90;;;;;;5047453;28;20201;-79
2023/08/02 05:33:03;;;;;;;2.87;2.30;;;16.10;99.90;;;;;;5026029;28;20254;-79
2023/08/02 05:35:30;;;;;;;4.03;2.10;;;16.10;99.90;;;;;;5034743;28;20600;-80
2023/08/02 05:37:56;;;;;;;2.00;1.90;;;16.20;99.90;;;;;;5034731;28;20232;-79
2023/08/02 05:40:22;;;;;;;4.23;2.00;;;16.30;99.90;;;;;;5034598;28;20176;-78
2023/08/02 05:42:49;;;;;;;3.20;1.90;;;16.50;99.90;;;;;;5033896;28;20594;-80
2023/08/02 05:45:15;;;;;;;2.63;2.03;;;16.50;99.90;;;;;;5033655;28;20585;-80
2023/08/02 05:47:41;;;;;;;2.03;1.93;;;16.40;99.90;;;;;;5038206;28;20261;-77
2023/08/02 05:50:08;;;;;;;2.20;1.97;;;16.60;99.90;;;;;;5043754;28;20224;-80
2023/08/02 05:52:33;;;;;;;5.67;2.43;;;16.70;99.90;;;;;;5040985;28;20189;-80
2023/08/02 05:54:59;;;;;;;2.20;2.10;;;16.70;99.90;;;;;;5055334;28;20231;-80
2023/08/02 05:57:25;;;;;;;2.30;1.87;;;16.80;99.90;;;;;;5035406;28;20199;-80
2023/08/02 05:59:51;;;;;;;2.10;2.00;;;16.90;99.90;;;;;;5049175;28;20267;-79
2023/08/02 06:02:17;;;;;;;2.03;1.90;;;17.10;99.90;;;;;;5037345;28;20177;-78
2023/08/02 06:04:44;;;;;;;1.70;1.70;;;17.30;99.90;;;;;;5037409;28;20183;-79
2023/08/02 06:07:11;;;;;;;1.57;1.57;;;17.30;99.90;;;;;;5037746;28;20179;-81
2023/08/02 06:09:37;;;;;;;1.80;1.80;;;17.20;99.90;;;;;;5047814;28;20204;-79
2023/08/02 06:12:03;;;;;;;1.90;1.80;;;17.20;99.90;;;;;;5023390;28;20190;-79
2023/08/02 06:14:29;;;;;;;2.40;1.73;;;17.20;99.90;;;;;;5038850;28;20979;-80
2023/08/02 06:16:55;;;;;;;2.00;1.90;;;17.40;99.90;;;;;;5037076;28;20260;-80
2023/08/02 06:19:20;;;;;;;2.40;2.30;;;17.50;99.90;;;;;;5003392;28;20183;-81
2023/08/02 06:21:46;;;;;;;2.10;2.00;;;17.60;99.90;;;;;;5020775;28;20173;-79
2023/08/02 06:24:12;;;;;;;2.50;1.97;;;17.70;99.90;;;;;;5036910;28;20185;-80
2023/08/02 06:26:38;;;;;;;2.00;1.90;;;17.80;99.90;;;;;;5036425;28;20218;-79
2023/08/02 06:29:06;;;;;;;2.13;2.00;;;17.90;99.90;;;;;;5019402;28;20272;-81
2023/08/02 06:31:32;;;;;;;2.30;2.20;;;17.90;99.90;;;;;;5037056;28;20639;-78
2023/08/02 06:33:58;;;;;;;2.50;2.30;;;17.80;99.90;;;;;;5036967;28;20523;-79
2023/08/02 06:36:24;;;;;;;3.00;2.80;;;17.90;99.90;;;;;;5036907;28;20171;-80
2023/08/02 06:38:50;;;;;;;2.43;2.33;;;18.20;99.90;;;;;;5036711;28;20172;-81
2023/08/02 06:41:15;;;;;;;3.20;2.37;;;18.30;99.90;;;;;;5036395;28;20176;-81
2023/08/02 06:43:41;;;;;;;2.83;2.20;;;18.40;99.90;;;;;;5036763;28;20200;-81
2023/08/02 06:46:07;;;;;;;2.60;2.40;;;18.40;99.90;;;;;;5051577;28;20276;-81
2023/08/02 06:48:33;;;;;;;2.50;2.30;;;18.40;99.90;;;;;;5059902;28;20183;-85
2023/08/02 06:51:00;;;;;;;2.43;2.23;;;18.50;99.90;;;;;;5052074;28;20213;-79
2023/08/02 06:53:26;;;;;;;3.57;2.83;;;18.40;99.90;;;;;;5038973;28;20176;-80
2023/08/02 06:55:51;;;;;;;3.23;3.00;;;18.30;99.90;;;;;;5037597;28;20540;-82
2023/08/02 06:58:17;;;;;;;3.00;2.80;;;18.30;99.90;;;;;;5036490;28;20173;-80
2023/08/02 07:00:43;;;;;;;2.90;2.70;;;18.30;99.90;;;;;;5036592;28;20241;-80
2023/08/02 07:03:09;;;;;;;3.07;2.87;;;18.50;99.90;;;;;;5036748;28;20177;-81
2023/08/02 07:05:35;;;;;;;2.70;2.50;;;18.70;99.90;;;;;;5036456;28;20529;-82
2023/08/02 07:08:02;;;;;;;3.27;2.97;;;18.90;99.90;;;;;;5036228;28;20624;-80
2023/08/02 07:10:29;;;;;;;2.83;2.63;;;19.00;99.90;;;;;;5036798;28;20204;-83
2023/08/02 07:12:56;;;;;;;4.07;3.67;;;19.10;99.90;;;;;;5036397;28;20169;-81
2023/08/02 07:15:22;;;;;;;5.27;3.80;;;19.20;99.90;;;;;;5036423;28;20172;-82
2023/08/02 07:17:48;;;;;;;4.00;3.70;;;19.30;99.90;;;;;;5045265;28;20197;-81
2023/08/02 07:20:14;;;;;;;4.00;3.70;;;19.40;99.90;;;;;;5049001;28;20173;-81
2023/08/02 07:22:43;;;;;;;3.83;3.53;;;19.50;99.90;;;;;;5036144;28;20165;-82
2023/08/02 07:25:10;;;;;;;3.83;3.57;;;19.60;99.90;;;;;;5018021;28;20172;-80
2023/08/02 07:27:37;;;;;;;4.23;3.83;;;19.70;99.90;;;;;;5036191;28;20183;-81
2023/08/02 07:30:03;;;;;;;6.33;4.10;;;19.70;99.90;;;;;;5035626;28;20231;-79
2023/08/02 07:32:32;;;;;;;4.77;4.37;;;19.40;99.90;;;;;;5042124;28;20181;-82
2023/08/02 07:34:58;;;;;;;4.43;4.13;;;19.10;99.90;;;;;;5042832;28;20177;-80
2023/08/02 07:37:24;;;;;;;4.67;4.30;;;19.10;99.90;;;;;;5043085;28;20167;-80
2023/08/02 07:39:50;;;;;;;4.40;4.10;;;19.00;99.90;;;;;;5017790;28;20173;-79
2023/08/02 07:42:16;;;;;;;4.20;3.90;;;19.10;99.90;;;;;;5036194;28;20173;-80
2023/08/02 07:44:42;;;;;;;4.73;4.33;;;19.40;99.90;;;;;;5017997;28;20258;-81
2023/08/02 07:47:09;;;;;;;5.37;3.73;;;19.60;99.90;;;;;;5037520;28;20177;-79
2023/08/02 07:49:35;;;;;;;4.57;4.27;;;19.90;99.90;;;;;;5024460;28;20209;-79
2023/08/02 07:52:00;;;;;;;4.63;4.27;;;20.20;99.90;;;;;;5035556;28;20179;-80
2023/08/02 07:54:26;;;;;;;4.27;3.90;;;20.30;99.90;;;;;;5017808;28;20180;-78
2023/08/02 07:56:52;;;;;;;4.33;4.03;;;20.30;99.90;;;;;;5018833;28;20259;-83
2023/08/02 07:59:18;;;;;;;4.30;3.90;;;20.40;99.90;;;;;;5037750;28;20247;-81
2023/08/02 08:01:44;;;;;;;3.80;3.50;;;20.50;99.90;;;;;;5037931;28;20260;-79
2023/08/02 08:04:10;;;;;;;4.37;4.07;;;20.60;99.90;;;;;;5038337;28;20195;-79
2023/08/02 08:06:36;;;;;;;4.40;4.00;;;20.70;99.90;;;;;;5038571;28;20169;-79
2023/08/02 08:09:02;;;;;;;3.70;3.40;;;20.50;99.90;;;;;;5034671;28;20176;-81
2023/08/02 08:11:29;;;;;;;3.40;3.20;;;20.50;99.90;;;;;;5034152;28;20215;-81
2023/08/02 08:13:55;;;;;;;3.70;3.50;;;20.50;99.90;;;;;;5034620;28;20202;-81
2023/08/02 08:16:21;;;;;;;3.27;3.17;;;20.40;99.90;;;;;;5034642;28;20169;-79
2023/08/02 08:18:47;;;;;;;3.60;3.40;;;20.50;99.90;;;;;;5034498;28;20183;-80
2023/08/02 08:21:13;;;;;;;3.33;3.13;;;20.70;99.90;;;;;;5035605;28;20306;-83
2023/08/02 08:23:40;;;;;;;3.50;3.30;;;20.80;99.90;;;;;;5021757;28;20631;-82
2023/08/02 08:26:11;;;;;;;3.07;2.93;;;21.00;99.90;;;;;;5055168;28;20157;-83
2023/08/02 08:28:37;;;;;;;3.43;3.23;;;21.00;99.90;;;;;;5037544;28;20647;-81
2023/08/02 08:31:09;;;;;;;3.10;2.90;;;21.10;99.90;;;;;;5028752;28;20205;-80
2023/08/02 08:33:36;;;;;;;2.77;2.57;;;21.40;99.90;;;;;;5020119;28;20267;-81
2023/08/02 08:36:01;;;;;;;3.00;2.80;;;21.50;99.90;;;;;;5034864;28;20207;-82
2023/08/02 08:38:27;;;;;;;3.10;2.90;;;21.40;99.90;;;;;;5034940;28;20179;-81
2023/08/02 08:40:55;;;;;;;2.77;2.67;;;21.40;99.90;;;;;;5033981;28;20544;-81
2023/08/02 08:43:26;;;;;;;2.73;2.53;;;21.90;99.90;;;;;;5034013;28;20165;-81
2023/08/02 08:45:52;;;;;;;2.47;2.37;;;21.40;99.90;;;;;;5033854;28;20216;-82
2023/08/02 08:48:23;;;;;;;2.80;2.60;;;21.50;99.90;;;;;;5034235;28;20168;-81
2023/08/02 08:50:52;;;;;;;2.90;2.70;;;21.50;99.90;;;;;;5034118;28;20196;-80
2023/08/02 08:53:28;;;;;;;2.97;2.77;;;21.40;99.90;;;;;;5034252;28;20215;-80
2023/08/02 08:55:55;;;;;;;2.83;2.50;;;21.50;99.90;;;;;;5034186;28;20164;-80
2023/08/02 08:58:21;;;;;;;2.40;2.30;;;21.40;99.90;;;;;;5034263;28;20179;-80
2023/08/02 09:00:47;;;;;;;2.27;2.17;;;21.30;99.90;;;;;;5034316;28;20172;-81
2023/08/02 09:03:15;;;;;;;2.50;1.90;;;21.10;99.90;;;;;;5034034;28;20172;-81
2023/08/02 09:05:42;;;;;;;1.90;1.80;;;21.10;99.90;;;;;;5035780;28;20266;-81
2023/08/02 09:08:08;;;;;;;1.97;1.87;;;21.10;99.90;;;;;;5034890;28;20192;-81
2023/08/02 09:10:34;;;;;;;3.40;3.20;;;21.20;99.90;;;;;;5033853;28;20691;-81
2023/08/02 09:12:59;;;;;;;2.80;2.60;;;21.20;99.90;;;;;;5017289;28;20173;-82
2023/08/02 09:15:25;;;;;;;2.47;2.27;;;21.30;99.90;;;;;;5045661;28;20169;-82
2023/08/02 09:17:53;;;;;;;2.00;1.90;;;21.40;99.90;;;;;;5035655;28;20181;-83
2023/08/02 09:20:23;;;;;;;2.10;2.00;;;21.50;99.90;;;;;;5035430;28;20176;-81
2023/08/02 09:22:49;;;;;;;2.03;2.00;;;21.60;99.90;;;;;;5038410;28;20233;-82
2023/08/02 09:25:33;;;;;;;1.97;1.87;;;21.70;99.90;;;;;;5023800;28;20192;-80
2023/08/02 09:28:10;;;;;;;4.43;2.63;;;21.70;99.90;;;;;;5031149;28;20180;-80
2023/08/02 09:30:35;;;;;;;2.80;2.70;;;21.80;99.90;;;;;;5021298;28;20211;-79
2023/08/02 09:33:03;;;;;;;2.30;2.20;;;21.80;99.90;;;;;;5020814;28;20255;-80
2023/08/02 09:35:51;;;;;;;1.90;1.83;;;21.80;99.90;;;;;;5037997;28;20169;-81
2023/08/02 09:38:18;;;;;;;2.10;2.00;;;21.70;99.90;;;;;;5019957;28;20172;-81
2023/08/02 09:40:47;;;;;;;1.97;1.87;;;21.80;99.90;;;;;;5037543;28;20173;-80
2023/08/02 09:43:16;;;;;;;2.10;2.00;;;21.90;99.90;;;;;;5019999;28;20187;-80
2023/08/02 09:45:43;;;;;;;1.93;1.83;;;22.00;99.90;;;;;;5037436;28;20231;-79
2023/08/02 09:48:09;;;;;;;1.60;1.60;;;22.00;99.90;;;;;;5037499;28;20225;-81
2023/08/02 09:50:55;;;;;;;2.03;1.97;;;22.00;99.90;;;;;;5037586;28;20582;-79
2023/08/02 09:53:23;;;;;;;2.40;1.83;;;22.00;99.90;;;;;;5019834;28;20167;-79
2023/08/02 09:55:51;;;;;;;1.70;1.70;;;22.10;99.90;;;;;;5039304;28;20215;-82
2023/08/02 09:58:20;;;;;;;2.00;1.90;;;22.00;99.90;;;;;;5041199;28;20180;-81
2023/08/02 10:00:46;;;;;;;2.10;1.90;;;22.10;99.90;;;;;;5043318;28;20184;-81
2023/08/02 10:03:12;;;;;;;2.00;1.90;;;22.20;99.90;;;;;;5044915;28;20180;-81
2023/08/02 10:05:44;;;;;;;3.17;1.97;;;22.20;99.90;;;;;;5059589;28;20157;-81
2023/08/02 10:08:11;;;;;;;1.57;1.57;;;22.30;99.90;;;;;;5040249;28;20199;-80
2023/08/02 10:10:39;;;;;;;1.70;1.70;;;22.40;99.90;;;;;;5040090;28;20212;-83
2023/08/02 10:13:08;;;;;;;2.00;1.90;;;22.50;99.90;;;;;;5038289;28;20584;-81
2023/08/02 10:15:38;;;;;;;2.10;2.00;;;22.40;99.90;;;;;;5019556;28;20611;-81
2023/08/02 10:18:04;;;;;;;2.15;2.05;;;22.50;99.90;;;;;;5036593;28;20180;-85
2023/08/02 10:20:30;;;;;;;2.13;2.03;;;22.70;99.90;;;;;;5043106;28;20171;-83
2023/08/02 10:22:58;;;;;;;2.13;2.03;;;22.80;99.90;;;;;;5048423;28;20234;-81
2023/08/02 10:25:24;;;;;;;1.90;1.90;;;22.90;99.90;;;;;;5040091;28;20173;-81
2023/08/02 10:27:52;;;;;;;1.92;1.90;;;23.20;99.90;;;;;;5047151;28;20266;-80
2023/08/02 10:30:18;;;;;;;2.15;2.05;;;23.40;99.90;;;;;;5036297;28;20232;-80
2023/08/02 10:32:44;;;;;;;1.85;1.75;;;23.70;99.90;;;;;;5017506;28;20285;-80
2023/08/02 10:35:09;;;;;;;2.00;1.90;;;23.90;99.90;;;;;;5036189;28;20184;-80
2023/08/02 10:37:54;;;;;;;2.10;2.00;;;24.10;99.90;;;;;;5036067;28;20215;-80
2023/08/02 10:40:21;;;;;;;1.70;1.70;;;24.40;99.90;;;;;;5036325;28;20176;-81
2023/08/02 10:43:07;;;;;;;2.03;1.92;;;24.60;99.90;;;;;;5035788;28;20248;-80
2023/08/02 10:45:33;;;;;;;4.13;1.60;;;24.50;99.90;;;;;;5035723;28;20306;-79
2023/08/02 10:48:25;;;;;;;1.52;1.52;;;24.60;99.90;;;;;;5018041;28;20227;-80
2023/08/02 10:50:52;;;;;;;1.38;1.38;;;24.70;99.90;;;;;;5018617;28;20200;-82
2023/08/02 10:53:18;;;;;;;2.00;1.40;;;24.70;99.90;;;;;;5042896;28;20646;-82
2023/08/02 10:56:12;;;;;;;1.48;1.48;;;24.50;99.90;;;;;;5023616;28;20242;-80
2023/08/02 10:58:48;;;;;;;1.45;1.45;;;24.50;99.90;;;;;;5018923;28;20168;-80
2023/08/02 11:01:16;;;;;;;1.42;1.42;;;24.60;99.90;;;;;;5036634;28;20517;-81
2023/08/02 11:03:43;;;;;;;1.98;1.88;;;24.80;99.90;;;;;;5022784;28;20326;-83
2023/08/02 11:06:23;;;;;;;1.50;1.50;;;24.90;99.90;;;;;;5038957;28;20173;-80
2023/08/02 11:08:49;;;;;;;1.50;1.50;;;24.80;99.90;;;;;;5037874;28;20652;-81
2023/08/02 11:11:14;;;;;;;1.75;1.65;;;24.80;99.90;;;;;;5032233;28;20219;-81
2023/08/02 11:13:41;;;;;;;1.58;1.48;;;24.80;99.90;;;;;;5039216;28;20180;-80
2023/08/02 11:16:07;;;;;;;1.80;1.70;;;24.70;99.90;;;;;;5036105;28;20182;-79
2023/08/02 11:18:34;;;;;;;2.05;1.80;;;24.80;99.90;;;;;;5036100;28;20164;-79
2023/08/02 11:21:13;;;;;;;1.60;1.60;;;24.90;99.90;;;;;;5035711;28;20644;-81
2023/08/02 11:23:40;;;;;;;1.65;1.65;;;25.10;99.90;;;;;;5018259;28;20628;-80
2023/08/02 11:26:10;;;;;;;2.05;1.95;;;25.20;99.90;;;;;;5019508;28;20184;-79
2023/08/02 11:28:48;;;;;;;1.80;1.80;;;25.30;99.90;;;;;;5057470;28;20156;-85
2023/08/02 11:31:14;;;;;;;1.50;1.50;;;25.60;99.90;;;;;;5049779;28;20656;-82
2023/08/02 11:33:40;;;;;;;1.60;1.50;;;25.60;99.90;;;;;;5036432;28;20168;-81
2023/08/02 11:36:07;;;;;;;1.63;1.63;;;25.90;99.90;;;;;;5036072;28;20173;-79
2023/08/02 11:38:35;;;;;;;1.70;1.70;;;26.10;99.90;;;;;;5036843;28;20169;-81
2023/08/02 11:41:03;;;;;;;1.42;1.42;;;26.20;99.90;;;;;;5039303;28;20172;-81
2023/08/02 11:43:36;;;;;;;1.70;1.70;;;26.40;99.90;;;;;;5037427;28;20176;-81
2023/08/02 11:46:23;;;;;;;1.40;1.40;;;26.30;99.90;;;;;;5019379;28;20220;-80
2023/08/02 11:48:49;;;;;;;1.80;1.50;;;26.20;99.90;;;;;;5036933;28;20168;-79
2023/08/02 11:51:18;;;;;;;1.40;1.40;;;26.00;99.90;;;;;;5022904;28;20235;-80
2023/08/02 11:53:57;;;;;;;1.40;1.40;;;25.90;99.90;;;;;;5021506;28;20173;-82
2023/08/02 11:56:27;;;;;;;1.70;1.60;;;25.70;99.90;;;;;;5015843;28;20166;-80
2023/08/02 11:58:54;;;;;;;1.48;1.40;;;25.50;99.90;;;;;;5015384;28;20169;-81
2023/08/02 12:01:20;;;;;;;1.35;1.35;;;25.60;99.90;;;;;;5015777;28;20625;-81
2023/08/02 12:03:53;;;;;;;1.48;1.45;;;25.60;99.90;;;;;;5015955;28;20176;-80
2023/08/02 12:06:19;;;;;;;1.40;1.30;;;25.70;99.90;;;;;;5021308;28;20173;-80
2023/08/02 12:08:51;;;;;;;1.60;1.50;;;25.70;99.90;;;;;;5022821;28;20172;-81
2023/08/02 12:11:17;;;;;;;1.45;1.42;;;25.80;99.90;;;;;;5019926;28;20212;-82
2023/08/02 12:13:44;;;;;;;1.60;1.50;;;25.80;99.90;;;;;;4998182;28;20177;-80
2023/08/02 12:16:11;;;;;;;1.50;1.50;;;25.80;99.90;;;;;;5015278;28;20169;-80
2023/08/02 12:18:57;;;;;;;1.70;1.70;;;26.00;99.90;;;;;;5015013;28;20165;-82
2023/08/02 12:21:25;;;;;;;1.48;1.48;;;26.00;99.90;;;;;;5014990;28;20181;-81
2023/08/02 12:23:53;;;;;;;1.55;1.38;;;26.00;99.90;;;;;;4996956;28;20173;-81
2023/08/02 12:26:31;;;;;;;1.63;1.52;;;26.00;99.90;;;;;;5014850;28;20561;-80
2023/08/02 12:28:58;;;;;;;1.80;1.70;;;26.10;99.90;;;;;;5015273;28;20177;-81
2023/08/02 12:31:24;;;;;;;1.67;1.58;;;26.00;99.90;;;;;;5026511;28;20195;-80
2023/08/02 12:33:50;;;;;;;1.30;1.30;;;26.10;99.90;;;;;;5014861;28;20165;-80
2023/08/02 12:36:27;;;;;;;1.30;1.30;;;26.10;99.90;;;;;;4997006;28;20177;-82
2023/08/02 12:38:53;;;;;;;1.23;1.23;;;26.10;99.90;;;;;;5014399;28;20254;-81
2023/08/02 12:41:19;;;;;;;1.38;1.38;;;26.10;99.90;;;;;;5021148;28;20177;-81
2023/08/02 12:43:44;;;;;;;1.30;1.30;;;25.90;99.90;;;;;;5028554;28;20205;-80
2023/08/02 12:46:10;;;;;;;1.13;1.13;;;25.90;99.90;;;;;;5033682;28;20220;-80
2023/08/02 12:48:36;;;;;;;1.20;1.20;;;26.10;99.90;;;;;;5034067;28;20234;-81